Time;durP1;ratioP1;P1;durP2;ratioP2;P2;SDS_P1;SDS_P2;PMS_P1;PMS_P2;Temp;Humidity;BMP_temperature;BMP_pressure;BME280_temperature;BME280_humidity;BME280_pressure;Samples;Min_cycle;Max_cycle;Signal;HPM_P1;HPM_P2
2023/10/25 00:01:01;;;;;;;5.65;3.10;;;;;;;;;;5093609;28;20028;-69
2023/10/25 00:03:26;;;;;;;6.78;3.00;;;;;;;;;;5105542;28;20020;-69
2023/10/25 00:05:51;;;;;;;8.68;3.20;;;;;;;;;;5090745;28;20028;-69
2023/10/25 00:08:17;;;;;;;6.85;2.85;;;;;;;;;;5093504;28;20115;-68
2023/10/25 00:10:42;;;;;;;9.13;3.40;;;;;;;;;;5089915;28;20032;-69
2023/10/25 00:13:07;;;;;;;6.30;2.90;;;;;;;;;;5090987;28;20036;-69
2023/10/25 00:15:33;;;;;;;5.53;3.10;;;;;;;;;;5089315;28;20028;-69
2023/10/25 00:17:58;;;;;;;5.97;3.08;;;;;;;;;;5110533;28;20365;-71
2023/10/25 00:20:24;;;;;;;6.40;2.95;;;;;;;;;;5090423;28;20077;-73
2023/10/25 00:22:49;;;;;;;7.75;2.88;;;;;;;;;;5091031;28;20161;-69
2023/10/25 00:25:14;;;;;;;7.63;3.25;;;;;;;;;;5095415;28;20411;-68
2023/10/25 00:27:40;;;;;;;8.07;3.15;;;;;;;;;;5094001;28;20063;-69
2023/10/25 00:30:06;;;;;;;7.25;3.30;;;;;;;;;;5075639;28;20123;-69
2023/10/25 00:32:31;;;;;;;8.45;3.13;;;;;;;;;;5084939;28;20058;-69
2023/10/25 00:34:56;;;;;;;7.30;3.22;;;;;;;;;;5100912;28;20381;-69
2023/10/25 00:37:22;;;;;;;7.28;3.50;;;;;;;;;;5110659;28;20114;-73
2023/10/25 00:39:48;;;;;;;6.32;3.25;;;;;;;;;;5105278;28;20077;-69
2023/10/25 00:42:13;;;;;;;6.07;3.40;;;;;;;;;;5106021;28;20392;-68
2023/10/25 00:44:39;;;;;;;5.80;3.03;;;;;;;;;;5096435;28;20422;-69
2023/10/25 00:47:04;;;;;;;8.93;3.50;;;;;;;;;;5103725;28;20427;-69
2023/10/25 00:49:30;;;;;;;6.45;3.60;;;;;;;;;;5095793;28;20039;-69
2023/10/25 00:51:56;;;;;;;6.07;3.65;;;;;;;;;;5093596;28;20055;-69
2023/10/25 00:54:22;;;;;;;6.75;3.40;;;;;;;;;;5094641;28;20036;-68
2023/10/25 00:56:49;;;;;;;8.55;3.55;;;;;;;;;;5091934;28;20063;-69
2023/10/25 00:59:15;;;;;;;5.78;3.40;;;;;;;;;;5094983;28;20472;-69
2023/10/25 01:01:42;;;;;;;9.07;3.70;;;;;;;;;;5075817;28;20032;-69
2023/10/25 01:04:07;;;;;;;10.23;3.90;;;;;;;;;;5100560;28;20038;-69
2023/10/25 01:06:32;;;;;;;6.28;3.45;;;;;;;;;;5102581;28;20024;-70
2023/10/25 01:08:59;;;;;;;10.02;4.00;;;;;;;;;;5090299;28;20039;-71
2023/10/25 01:11:25;;;;;;;8.32;4.10;;;;;;;;;;5111501;28;20447;-73
2023/10/25 01:13:51;;;;;;;6.88;3.60;;;;;;;;;;5087651;28;20103;-69
2023/10/25 01:16:16;;;;;;;9.48;3.80;;;;;;;;;;5093731;28;20103;-69
2023/10/25 01:18:41;;;;;;;11.15;4.00;;;;;;;;;;5075090;28;20396;-69
2023/10/25 01:21:07;;;;;;;8.13;4.55;;;;;;;;;;5095237;28;20475;-69
2023/10/25 01:23:32;;;;;;;8.00;4.00;;;;;;;;;;5092120;28;20040;-69
2023/10/25 01:25:57;;;;;;;8.85;4.00;;;;;;;;;;5093849;28;20024;-69
2023/10/25 01:28:23;;;;;;;6.65;3.80;;;;;;;;;;5075612;28;20093;-69
2023/10/25 01:30:48;;;;;;;7.50;3.80;;;;;;;;;;5092553;28;21511;-73
2023/10/25 01:33:14;;;;;;;9.18;4.15;;;;;;;;;;5113076;28;20066;-69
2023/10/25 01:35:39;;;;;;;8.52;4.50;;;;;;;;;;5108067;28;20623;-69
2023/10/25 01:38:04;;;;;;;9.90;4.25;;;;;;;;;;5093745;28;20488;-69
2023/10/25 01:40:30;;;;;;;8.18;4.60;;;;;;;;;;5092338;28;20494;-69
2023/10/25 01:42:55;;;;;;;7.00;3.97;;;;;;;;;;5093283;28;20070;-69
2023/10/25 01:45:23;;;;;;;7.90;4.28;;;;;;;;;;5093375;28;20473;-70
2023/10/25 01:47:49;;;;;;;9.40;4.05;;;;;;;;;;5077770;28;20357;-69
2023/10/25 01:50:14;;;;;;;7.63;4.10;;;;;;;;;;5093371;28;20032;-69
2023/10/25 01:52:40;;;;;;;8.50;4.20;;;;;;;;;;5075042;28;20092;-69
2023/10/25 01:55:05;;;;;;;9.95;3.90;;;;;;;;;;5103047;28;20171;-72
2023/10/25 01:57:31;;;;;;;8.15;3.67;;;;;;;;;;5091956;28;20068;-69
2023/10/25 01:59:56;;;;;;;8.25;3.90;;;;;;;;;;5093916;28;20062;-69
2023/10/25 02:02:21;;;;;;;7.38;4.32;;;;;;;;;;5075416;28;20028;-69
2023/10/25 02:04:47;;;;;;;6.70;3.80;;;;;;;;;;5113455;28;20075;-69
2023/10/25 02:07:12;;;;;;;9.77;4.18;;;;;;;;;;5092948;28;20038;-69
2023/10/25 02:09:37;;;;;;;10.25;4.47;;;;;;;;;;5093926;28;20031;-69
2023/10/25 02:12:03;;;;;;;9.40;4.43;;;;;;;;;;5094766;28;20453;-69
2023/10/25 02:14:31;;;;;;;9.38;4.07;;;;;;;;;;5113623;28;20110;-73
2023/10/25 02:16:56;;;;;;;8.70;3.85;;;;;;;;;;5112029;28;20031;-69
2023/10/25 02:19:21;;;;;;;7.00;3.58;;;;;;;;;;5093333;28;20024;-69
2023/10/25 02:21:47;;;;;;;8.52;3.88;;;;;;;;;;5092613;28;20107;-69
2023/10/25 02:24:14;;;;;;;11.88;4.25;;;;;;;;;;5072540;28;20397;-69
2023/10/25 02:26:40;;;;;;;8.52;3.90;;;;;;;;;;5102802;28;20068;-70
2023/10/25 02:29:05;;;;;;;8.13;3.83;;;;;;;;;;5092492;28;20043;-70
2023/10/25 02:31:33;;;;;;;5.72;3.40;;;;;;;;;;5091725;28;20089;-73
2023/10/25 02:33:58;;;;;;;7.30;3.53;;;;;;;;;;5092271;28;20032;-73
2023/10/25 02:36:24;;;;;;;7.50;3.63;;;;;;;;;;5101363;28;20027;-69
2023/10/25 02:38:49;;;;;;;6.22;3.70;;;;;;;;;;5076272;28;20028;-73
2023/10/25 02:41:15;;;;;;;7.78;3.88;;;;;;;;;;5112421;28;20460;-69
2023/10/25 02:43:41;;;;;;;9.68;4.18;;;;;;;;;;5096272;28;20070;-69
2023/10/25 02:46:11;;;;;;;8.35;3.85;;;;;;;;;;5090213;28;20111;-69
2023/10/25 02:48:39;;;;;;;12.10;4.03;;;;;;;;;;5091767;28;20039;-70
2023/10/25 02:51:05;;;;;;;11.30;4.47;;;;;;;;;;5098530;28;20033;-69
2023/10/25 02:53:31;;;;;;;13.00;3.90;;;;;;;;;;5095774;28;20392;-73
2023/10/25 02:56:01;;;;;;;9.27;4.30;;;;;;;;;;5091060;28;20120;-69
2023/10/25 02:58:27;;;;;;;9.43;4.53;;;;;;;;;;5101911;28;20036;-69
2023/10/25 03:00:52;;;;;;;11.23;4.10;;;;;;;;;;5091323;28;20100;-69
2023/10/25 03:03:18;;;;;;;7.85;4.53;;;;;;;;;;5091230;28;20053;-69
2023/10/25 03:05:43;;;;;;;8.95;4.25;;;;;;;;;;5090760;28;20051;-69
2023/10/25 03:08:08;;;;;;;7.97;4.78;;;;;;;;;;5092042;28;20111;-68
2023/10/25 03:10:34;;;;;;;8.35;4.15;;;;;;;;;;5073705;28;20395;-72
2023/10/25 03:12:59;;;;;;;9.80;4.25;;;;;;;;;;5108686;28;20031;-69
2023/10/25 03:15:25;;;;;;;8.10;3.85;;;;;;;;;;5093184;28;20082;-69
2023/10/25 03:17:50;;;;;;;8.20;4.20;;;;;;;;;;5092871;28;20035;-69
2023/10/25 03:20:16;;;;;;;10.75;4.40;;;;;;;;;;5092265;28;20039;-68
2023/10/25 03:22:41;;;;;;;7.97;3.92;;;;;;;;;;5090326;28;20028;-69
2023/10/25 03:25:07;;;;;;;12.40;4.30;;;;;;;;;;5075808;28;20431;-69
2023/10/25 03:27:33;;;;;;;8.65;4.18;;;;;;;;;;5090365;28;20036;-73
2023/10/25 03:29:58;;;;;;;9.35;3.80;;;;;;;;;;5091099;28;20056;-69
2023/10/25 03:32:23;;;;;;;8.32;3.65;;;;;;;;;;5097589;28;20088;-73
2023/10/25 03:34:52;;;;;;;7.32;4.05;;;;;;;;;;5072301;28;20032;-69
2023/10/25 03:37:17;;;;;;;8.15;4.15;;;;;;;;;;5091196;28;20054;-69
2023/10/25 03:39:43;;;;;;;8.57;3.60;;;;;;;;;;5090480;28;20032;-69
2023/10/25 03:42:08;;;;;;;10.50;4.30;;;;;;;;;;5081479;28;20036;-69
2023/10/25 03:44:34;;;;;;;11.45;4.13;;;;;;;;;;5091324;28;20490;-73
2023/10/25 03:46:59;;;;;;;11.82;4.20;;;;;;;;;;5105152;28;20031;-69
2023/10/25 03:49:28;;;;;;;9.20;4.30;;;;;;;;;;5110329;28;20096;-69
2023/10/25 03:51:53;;;;;;;9.95;4.25;;;;;;;;;;5105599;28;20028;-69
2023/10/25 03:54:18;;;;;;;9.63;4.60;;;;;;;;;;5090986;28;20043;-69
2023/10/25 03:56:44;;;;;;;8.90;4.45;;;;;;;;;;5090291;28;20491;-69
2023/10/25 03:59:09;;;;;;;12.45;4.35;;;;;;;;;;5093500;28;20039;-69
2023/10/25 04:01:35;;;;;;;7.18;3.85;;;;;;;;;;5088196;28;20035;-73
2023/10/25 04:04:00;;;;;;;7.38;4.20;;;;;;;;;;5091177;28;20028;-69
2023/10/25 04:06:26;;;;;;;6.97;3.90;;;;;;;;;;5091170;28;20032;-69
2023/10/25 04:08:51;;;;;;;7.85;3.85;;;;;;;;;;5074228;28;20024;-69
2023/10/25 04:11:16;;;;;;;10.60;4.00;;;;;;;;;;5092394;28;20036;-69
2023/10/25 04:13:43;;;;;;;6.97;4.03;;;;;;;;;;5085063;28;20024;-69
2023/10/25 04:16:09;;;;;;;10.13;4.38;;;;;;;;;;5094029;28;20544;-69
2023/10/25 04:18:35;;;;;;;8.65;4.60;;;;;;;;;;5095455;28;20074;-72
2023/10/25 04:21:01;;;;;;;7.15;3.90;;;;;;;;;;5091527;28;20032;-69
2023/10/25 04:23:28;;;;;;;9.02;4.63;;;;;;;;;;5090750;28;20048;-69
2023/10/25 04:26:09;;;;;;;9.13;4.55;;;;;;;;;;5090302;28;20043;-69
2023/10/25 04:28:36;;;;;;;9.35;4.90;;;;;;;;;;5091199;28;20392;-71
2023/10/25 04:31:01;;;;;;;8.63;4.40;;;;;;;;;;5090217;28;20036;-69
2023/10/25 04:33:27;;;;;;;8.98;4.55;;;;;;;;;;5073343;28;20036;-69
2023/10/25 04:35:53;;;;;;;11.02;4.18;;;;;;;;;;5091684;28;20036;-69
2023/10/25 04:38:18;;;;;;;13.35;5.05;;;;;;;;;;5091111;28;20036;-69
2023/10/25 04:40:44;;;;;;;11.73;5.00;;;;;;;;;;5090441;28;20063;-70
2023/10/25 04:43:09;;;;;;;7.88;4.53;;;;;;;;;;5106090;28;20035;-69
2023/10/25 04:45:35;;;;;;;7.45;4.22;;;;;;;;;;5079040;28;20123;-70
2023/10/25 04:48:00;;;;;;;8.25;4.53;;;;;;;;;;5090274;28;20036;-69
2023/10/25 04:50:26;;;;;;;9.48;4.90;;;;;;;;;;5091422;28;20039;-70
2023/10/25 04:52:51;;;;;;;8.45;4.82;;;;;;;;;;5090475;28;20025;-69
2023/10/25 04:55:17;;;;;;;11.18;5.15;;;;;;;;;;5091658;28;20032;-70
2023/10/25 04:57:43;;;;;;;8.90;5.03;;;;;;;;;;5090381;28;20395;-70
2023/10/25 05:00:12;;;;;;;10.13;5.18;;;;;;;;;;5091253;28;20107;-70
2023/10/25 05:02:40;;;;;;;10.82;5.40;;;;;;;;;;5090776;28;20024;-71
2023/10/25 05:05:07;;;;;;;8.45;5.18;;;;;;;;;;5090828;28;20126;-69
2023/10/25 05:07:33;;;;;;;9.82;5.10;;;;;;;;;;5091127;28;20469;-69
2023/10/25 05:09:59;;;;;;;10.88;4.68;;;;;;;;;;5101516;28;20035;-70
2023/10/25 05:12:34;;;;;;;11.75;5.28;;;;;;;;;;5115203;28;20028;-69
2023/10/25 05:15:01;;;;;;;7.97;4.90;;;;;;;;;;5114367;28;20102;-69
2023/10/25 05:17:27;;;;;;;11.68;5.03;;;;;;;;;;5111889;28;20035;-70
2023/10/25 05:19:53;;;;;;;9.15;4.50;;;;;;;;;;5093707;28;20024;-70
2023/10/25 05:22:24;;;;;;;13.10;5.85;;;;;;;;;;5094818;28;20590;-69
2023/10/25 05:24:49;;;;;;;10.82;5.68;;;;;;;;;;5075582;28;20052;-70
2023/10/25 05:27:15;;;;;;;15.63;6.47;;;;;;;;;;5094788;28;20488;-69
2023/10/25 05:29:41;;;;;;;14.32;6.35;;;;;;;;;;5094293;28;20081;-71
2023/10/25 05:32:13;;;;;;;13.80;7.15;;;;;;;;;;5095336;28;20028;-70
2023/10/25 05:34:38;;;;;;;11.88;6.13;;;;;;;;;;5094764;28;20430;-69
2023/10/25 05:37:04;;;;;;;11.95;5.68;;;;;;;;;;5093945;28;20032;-71
2023/10/25 05:39:30;;;;;;;14.73;5.53;;;;;;;;;;5098316;28;20451;-71
2023/10/25 05:41:58;;;;;;;11.18;5.50;;;;;;;;;;5099627;28;20035;-71
2023/10/25 05:44:24;;;;;;;13.55;5.45;;;;;;;;;;5103876;28;20047;-67
2023/10/25 05:46:49;;;;;;;9.18;5.47;;;;;;;;;;5113092;28;20019;-77
2023/10/25 05:49:15;;;;;;;14.88;6.25;;;;;;;;;;5114237;28;20039;-75
2023/10/25 05:51:41;;;;;;;13.85;5.47;;;;;;;;;;5101327;28;20035;-71
2023/10/25 05:54:06;;;;;;;9.05;5.10;;;;;;;;;;5101700;28;20039;-71
2023/10/25 05:56:32;;;;;;;11.68;5.63;;;;;;;;;;5114196;28;20023;-74
2023/10/25 05:58:58;;;;;;;12.30;5.65;;;;;;;;;;5113354;28;20040;-76
2023/10/25 06:01:50;;;;;;;11.20;5.05;;;;;;;;;;5096162;28;20035;-71
2023/10/25 06:04:16;;;;;;;9.25;4.93;;;;;;;;;;5112940;28;20039;-74
2023/10/25 06:06:44;;;;;;;8.57;4.97;;;;;;;;;;5091483;28;20027;-75
2023/10/25 06:09:10;;;;;;;8.88;4.50;;;;;;;;;;5101335;28;20039;-75
2023/10/25 06:11:40;;;;;;;8.95;5.20;;;;;;;;;;5095828;28;20122;-76
2023/10/25 06:14:06;;;;;;;10.43;4.63;;;;;;;;;;5113052;28;20036;-77
2023/10/25 06:16:32;;;;;;;7.22;4.50;;;;;;;;;;5114138;28;20030;-72
2023/10/25 06:18:57;;;;;;;10.10;4.53;;;;;;;;;;5114533;28;20035;-68
2023/10/25 06:21:22;;;;;;;8.68;5.30;;;;;;;;;;5110068;28;20103;-68
2023/10/25 06:23:50;;;;;;;10.10;4.50;;;;;;;;;;5104126;28;20388;-74
2023/10/25 06:26:15;;;;;;;10.30;4.78;;;;;;;;;;5113977;28;20024;-73
2023/10/25 06:28:40;;;;;;;9.18;4.68;;;;;;;;;;5113017;28;20034;-76
2023/10/25 06:31:10;;;;;;;11.43;5.32;;;;;;;;;;5112901;28;20118;-68
2023/10/25 06:33:35;;;;;;;12.65;5.85;;;;;;;;;;5101844;28;20031;-73
2023/10/25 06:36:01;;;;;;;13.80;5.57;;;;;;;;;;5112957;28;20495;-70
2023/10/25 06:38:27;;;;;;;11.00;5.18;;;;;;;;;;5113561;28;20031;-71
2023/10/25 06:40:52;;;;;;;13.07;5.85;;;;;;;;;;5109525;28;20031;-67
2023/10/25 06:43:18;;;;;;;10.57;5.45;;;;;;;;;;5112848;28;20027;-73
2023/10/25 06:45:46;;;;;;;9.40;5.00;;;;;;;;;;5112689;28;20027;-73
2023/10/25 06:48:12;;;;;;;12.27;5.30;;;;;;;;;;5113091;28;20535;-72
2023/10/25 06:50:38;;;;;;;7.78;4.70;;;;;;;;;;5112970;28;20161;-72
2023/10/25 06:53:04;;;;;;;12.93;4.85;;;;;;;;;;5094263;28;20027;-73
2023/10/25 06:55:30;;;;;;;8.35;4.75;;;;;;;;;;5095056;28;20030;-71
2023/10/25 06:57:55;;;;;;;8.80;5.43;;;;;;;;;;5112348;28;20114;-69
2023/10/25 07:00:22;;;;;;;9.15;5.40;;;;;;;;;;5107910;28;20056;-71
2023/10/25 07:02:56;;;;;;;11.02;5.70;;;;;;;;;;5091751;28;20423;-69
2023/10/25 07:05:23;;;;;;;9.35;5.07;;;;;;;;;;5107124;28;20081;-69
2023/10/25 07:07:52;;;;;;;8.20;5.03;;;;;;;;;;5112303;28;20478;-67
2023/10/25 07:10:19;;;;;;;11.52;5.03;;;;;;;;;;5111569;28;20396;-68
2023/10/25 07:12:45;;;;;;;10.77;5.32;;;;;;;;;;5094008;28;20028;-76
2023/10/25 07:15:11;;;;;;;11.57;4.90;;;;;;;;;;5112666;28;20088;-72
2023/10/25 07:17:37;;;;;;;9.15;5.05;;;;;;;;;;5111412;28;20043;-71
2023/10/25 07:20:07;;;;;;;10.77;5.13;;;;;;;;;;5110955;28;20031;-70
2023/10/25 07:22:32;;;;;;;8.93;4.78;;;;;;;;;;5094869;28;20028;-71
2023/10/25 07:24:58;;;;;;;11.57;4.88;;;;;;;;;;5104636;28;20100;-71
2023/10/25 07:27:24;;;;;;;9.05;5.25;;;;;;;;;;5097672;28;20028;-69
2023/10/25 07:29:50;;;;;;;11.63;5.18;;;;;;;;;;5098779;28;20027;-72
2023/10/25 07:32:18;;;;;;;10.05;5.00;;;;;;;;;;5097600;28;20063;-73
2023/10/25 07:34:43;;;;;;;8.65;5.18;;;;;;;;;;5105660;28;20118;-74
2023/10/25 07:37:09;;;;;;;10.50;5.47;;;;;;;;;;5111712;28;20102;-70
2023/10/25 07:39:35;;;;;;;8.90;5.18;;;;;;;;;;5112421;28;20115;-68
2023/10/25 07:42:01;;;;;;;10.38;5.35;;;;;;;;;;5111495;28;20028;-71
2023/10/25 07:44:27;;;;;;;8.50;5.30;;;;;;;;;;5112158;28;20099;-70
2023/10/25 07:46:53;;;;;;;9.95;5.30;;;;;;;;;;5095035;28;20115;-70
2023/10/25 07:49:18;;;;;;;13.52;6.25;;;;;;;;;;5076049;28;20140;-73
2023/10/25 07:51:44;;;;;;;12.25;6.10;;;;;;;;;;5074352;28;20066;-73
2023/10/25 07:54:09;;;;;;;14.75;6.28;;;;;;;;;;5074622;28;20476;-66
2023/10/25 07:56:34;;;;;;;12.65;5.90;;;;;;;;;;5111818;28;20047;-70
2023/10/25 07:59:00;;;;;;;10.65;5.70;;;;;;;;;;5108877;28;20109;-70
2023/10/25 08:01:25;;;;;;;9.48;5.85;;;;;;;;;;5074862;28;20196;-68
2023/10/25 08:03:50;;;;;;;16.02;5.95;;;;;;;;;;5091854;28;20414;-67
2023/10/25 08:06:17;;;;;;;9.75;5.82;;;;;;;;;;5110952;28;20035;-69
2023/10/25 08:08:42;;;;;;;14.75;6.00;;;;;;;;;;5096823;28;20035;-72
2023/10/25 08:11:08;;;;;;;11.13;6.25;;;;;;;;;;5090009;28;20031;-70
2023/10/25 08:13:34;;;;;;;10.63;5.40;;;;;;;;;;5112030;28;20424;-72
2023/10/25 08:16:01;;;;;;;14.48;5.93;;;;;;;;;;5111145;28;20383;-75
2023/10/25 08:18:29;;;;;;;13.57;5.78;;;;;;;;;;5093736;28;20032;-71
2023/10/25 08:20:58;;;;;;;13.60;6.00;;;;;;;;;;5092493;28;20476;-72
2023/10/25 08:23:24;;;;;;;10.82;6.13;;;;;;;;;;5111668;28;20464;-72
2023/10/25 08:25:53;;;;;;;13.20;5.95;;;;;;;;;;5109338;28;20042;-69
2023/10/25 08:28:18;;;;;;;10.88;5.85;;;;;;;;;;5073331;28;20031;-71
2023/10/25 08:30:44;;;;;;;12.27;5.80;;;;;;;;;;5094394;28;20028;-71
2023/10/25 08:33:10;;;;;;;11.20;5.95;;;;;;;;;;5106417;28;20024;-68
2023/10/25 08:35:37;;;;;;;11.60;5.93;;;;;;;;;;5106672;28;20076;-68
2023/10/25 08:38:03;;;;;;;9.68;5.53;;;;;;;;;;5090343;28;20032;-71
2023/10/25 08:40:31;;;;;;;12.07;5.70;;;;;;;;;;5086121;28;20111;-70
2023/10/25 08:43:00;;;;;;;9.95;5.70;;;;;;;;;;5111231;28;20504;-70
2023/10/25 08:45:26;;;;;;;9.50;5.07;;;;;;;;;;5095596;28;20028;-70
2023/10/25 08:47:53;;;;;;;12.20;5.10;;;;;;;;;;5114452;28;20027;-69
2023/10/25 08:50:21;;;;;;;14.68;5.20;;;;;;;;;;5115740;28;20027;-70
2023/10/25 08:52:51;;;;;;;9.80;5.38;;;;;;;;;;5115127;28;20035;-75
2023/10/25 08:55:19;;;;;;;9.75;5.35;;;;;;;;;;5094919;28;20039;-71
2023/10/25 08:57:45;;;;;;;11.57;4.80;;;;;;;;;;5115201;28;20491;-73
2023/10/25 09:00:14;;;;;;;9.65;4.75;;;;;;;;;;5114560;28;20027;-70
2023/10/25 09:02:39;;;;;;;10.98;4.75;;;;;;;;;;5115393;28;20036;-70
2023/10/25 09:05:08;;;;;;;9.18;4.40;;;;;;;;;;5096135;28;20124;-70
2023/10/25 09:07:36;;;;;;;9.48;4.50;;;;;;;;;;5097712;28;20085;-69
2023/10/25 09:10:03;;;;;;;8.80;3.83;;;;;;;;;;5111276;28;20421;-68
2023/10/25 09:12:29;;;;;;;9.43;3.63;;;;;;;;;;5094600;28;20032;-71
2023/10/25 09:14:55;;;;;;;8.68;3.30;;;;;;;;;;5096928;28;20106;-67
2023/10/25 09:17:20;;;;;;;8.88;3.38;;;;;;;;;;5096405;28;20119;-68
2023/10/25 09:19:48;;;;;;;8.35;2.95;;;;;;;;;;5112924;28;20055;-74
2023/10/25 09:22:25;;;;;;;9.73;2.83;;;;;;;;;;5095741;28;20040;-68
2023/10/25 09:24:54;;;;;;;7.40;2.53;;;;;;;;;;5084098;28;20077;-69
2023/10/25 09:27:21;;;;;;;5.78;2.30;;;;;;;;;;5105991;28;20103;-71
2023/10/25 09:29:46;;;;;;;6.35;2.22;;;;;;;;;;5095918;28;20444;-73
2023/10/25 09:32:12;;;;;;;6.57;2.20;;;;;;;;;;5099025;28;20519;-71
2023/10/25 09:34:38;;;;;;;4.57;2.00;;;;;;;;;;5094453;28;20065;-70
2023/10/25 09:37:04;;;;;;;3.92;1.80;;;;;;;;;;5080146;28;20035;-71
2023/10/25 09:39:32;;;;;;;3.90;1.98;;;;;;;;;;5094338;28;20031;-71
2023/10/25 09:42:01;;;;;;;5.05;1.77;;;;;;;;;;5112749;28;20081;-70
2023/10/25 09:44:31;;;;;;;4.93;1.80;;;;;;;;;;5107299;28;20396;-69
2023/10/25 09:46:58;;;;;;;3.57;1.73;;;;;;;;;;5111508;28;20039;-70
2023/10/25 09:49:31;;;;;;;5.53;2.00;;;;;;;;;;5092408;28;20043;-72
2023/10/25 09:52:00;;;;;;;5.72;1.80;;;;;;;;;;5106694;28;20036;-72
2023/10/25 09:54:36;;;;;;;5.97;1.60;;;;;;;;;;5076305;28;20035;-70
2023/10/25 09:57:02;;;;;;;2.80;1.60;;;;;;;;;;5112089;28;20058;-71
2023/10/25 09:59:33;;;;;;;4.00;1.55;;;;;;;;;;5101215;28;20032;-69
2023/10/25 10:02:00;;;;;;;6.00;1.77;;;;;;;;;;5072318;28;20373;-70
2023/10/25 10:04:39;;;;;;;9.70;1.70;;;;;;;;;;5095501;28;20380;-67
2023/10/25 10:07:28;;;;;;;3.97;1.60;;;;;;;;;;5108675;28;20031;-69
2023/10/25 10:10:05;;;;;;;6.70;1.80;;;;;;;;;;5051550;28;20097;-71
2023/10/25 10:12:31;;;;;;;4.70;1.55;;;;;;;;;;5083943;28;20039;-68
2023/10/25 10:14:56;;;;;;;4.20;1.63;;;;;;;;;;5074894;28;20384;-70
2023/10/25 10:17:22;;;;;;;4.18;1.60;;;;;;;;;;5113964;28;20072;-70
2023/10/25 10:19:50;;;;;;;3.47;1.60;;;;;;;;;;5113754;28;20028;-70
2023/10/25 10:22:16;;;;;;;3.35;1.35;;;;;;;;;;5113229;28;20030;-70
2023/10/25 10:24:42;;;;;;;4.25;1.83;;;;;;;;;;5113347;28;20396;-70
2023/10/25 10:27:10;;;;;;;4.13;1.83;;;;;;;;;;5100735;28;20032;-69
2023/10/25 10:29:35;;;;;;;3.13;1.77;;;;;;;;;;5093535;28;20039;-68
2023/10/25 10:32:03;;;;;;;6.05;1.83;;;;;;;;;;5106802;28;20027;-70
2023/10/25 10:34:48;;;;;;;6.10;1.80;;;;;;;;;;5093152;28;20029;-68
2023/10/25 10:37:23;;;;;;;4.18;2.00;;;;;;;;;;5110789;28;20032;-68
2023/10/25 10:39:57;;;;;;;4.55;1.80;;;;;;;;;;5113472;28;20543;-76
2023/10/25 10:42:41;;;;;;;7.78;1.75;;;;;;;;;;5113512;28;20031;-69
2023/10/25 10:45:11;;;;;;;5.38;1.92;;;;;;;;;;5100400;28;20042;-68
2023/10/25 10:48:04;;;;;;;3.10;1.90;;;;;;;;;;5108198;28;20229;-72
2023/10/25 10:50:29;;;;;;;4.20;2.08;;;;;;;;;;5055165;28;20048;-69
2023/10/25 10:52:55;;;;;;;4.45;1.98;;;;;;;;;;5093992;28;20035;-71
2023/10/25 10:55:22;;;;;;;4.00;2.05;;;;;;;;;;5112194;28;20495;-69
2023/10/25 10:57:49;;;;;;;4.80;1.90;;;;;;;;;;5111820;28;20101;-71
2023/10/25 11:00:16;;;;;;;7.32;2.10;;;;;;;;;;5112430;28;20061;-70
2023/10/25 11:02:51;;;;;;;5.15;2.60;;;;;;;;;;5113051;28;20131;-68
2023/10/25 11:05:22;;;;;;;6.05;2.22;;;;;;;;;;5094374;28;20439;-71
2023/10/25 11:07:48;;;;;;;;;;;;;;;;;;5094538;28;20027;-72
2023/10/25 11:10:14;;;;;;;3.22;2.20;;;;;;;;;;5112227;28;20367;-72
2023/10/25 11:12:40;;;;;;;6.28;2.55;;;;;;;;;;5113057;28;20035;-72
2023/10/25 11:15:06;;;;;;;5.20;2.55;;;;;;;;;;5112216;28;20551;-72
2023/10/25 11:17:33;;;;;;;4.22;2.60;;;;;;;;;;5112704;28;20451;-71
2023/10/25 11:19:59;;;;;;;8.77;2.42;;;;;;;;;;5112300;28;20070;-72
2023/10/25 11:22:25;;;;;;;8.40;2.50;;;;;;;;;;5103581;28;20123;-72
2023/10/25 11:24:51;;;;;;;5.65;3.08;;;;;;;;;;5092213;28;20043;-73
2023/10/25 11:27:17;;;;;;;6.57;2.80;;;;;;;;;;5107316;28;20513;-72
2023/10/25 11:29:42;;;;;;;9.13;3.08;;;;;;;;;;5094430;28;20028;-73
2023/10/25 11:32:17;;;;;;;7.88;2.70;;;;;;;;;;5111492;28;20039;-71
2023/10/25 11:34:43;;;;;;;8.02;3.00;;;;;;;;;;5096187;28;20543;-73
2023/10/25 11:37:09;;;;;;;9.40;2.63;;;;;;;;;;5107136;28;20135;-73
2023/10/25 11:39:54;;;;;;;6.43;2.65;;;;;;;;;;5114580;28;20023;-71
2023/10/25 11:42:19;;;;;;;6.72;2.60;;;;;;;;;;5082446;28;20024;-70
2023/10/25 11:44:45;;;;;;;4.65;2.53;;;;;;;;;;5074018;28;20024;-71
2023/10/25 11:47:18;;;;;;;5.97;2.90;;;;;;;;;;5104315;28;20137;-71
2023/10/25 11:49:43;;;;;;;4.75;2.60;;;;;;;;;;5095014;28;20473;-69
2023/10/25 11:52:08;;;;;;;6.40;2.70;;;;;;;;;;5111436;28;20149;-75
2023/10/25 11:54:34;;;;;;;6.05;2.90;;;;;;;;;;5093912;28;20038;-74
2023/10/25 11:56:59;;;;;;;8.25;2.65;;;;;;;;;;5111267;28;20038;-72
2023/10/25 11:59:25;;;;;;;7.57;2.80;;;;;;;;;;5106030;28;20032;-71
2023/10/25 12:01:50;;;;;;;7.95;2.80;;;;;;;;;;5102005;28;20047;-71
2023/10/25 12:04:15;;;;;;;5.70;2.50;;;;;;;;;;5111126;28;20080;-70
2023/10/25 12:06:41;;;;;;;5.35;2.72;;;;;;;;;;5111650;28;20107;-71
2023/10/25 12:09:06;;;;;;;5.75;2.90;;;;;;;;;;5110800;28;20474;-71
2023/10/25 12:11:32;;;;;;;7.57;3.00;;;;;;;;;;5103818;28;20487;-72
2023/10/25 12:13:57;;;;;;;6.10;3.08;;;;;;;;;;5104803;28;20034;-73
2023/10/25 12:16:23;;;;;;;7.88;3.50;;;;;;;;;;5104688;28;20028;-69
2023/10/25 12:18:49;;;;;;;6.25;3.00;;;;;;;;;;5101408;28;20043;-73
2023/10/25 12:21:14;;;;;;;7.45;3.20;;;;;;;;;;5098850;28;20331;-76
2023/10/25 12:23:40;;;;;;;6.07;3.40;;;;;;;;;;5099240;28;20047;-74
2023/10/25 12:26:06;;;;;;;10.93;3.80;;;;;;;;;;5114438;28;20385;-77
2023/10/25 12:28:31;;;;;;;5.85;3.72;;;;;;;;;;5099275;28;20050;-77
2023/10/25 12:30:57;;;;;;;7.65;4.07;;;;;;;;;;5106786;28;20405;-72
2023/10/25 12:33:22;;;;;;;9.18;3.67;;;;;;;;;;5116161;28;20063;-74
2023/10/25 12:35:49;;;;;;;6.68;4.10;;;;;;;;;;5094765;28;20088;-74
2023/10/25 12:38:15;;;;;;;8.02;3.90;;;;;;;;;;5114719;28;20028;-73
2023/10/25 12:40:40;;;;;;;8.68;4.63;;;;;;;;;;5115572;28;20027;-72
2023/10/25 12:43:06;;;;;;;7.30;4.60;;;;;;;;;;5114478;28;20049;-73
2023/10/25 12:45:31;;;;;;;8.23;4.57;;;;;;;;;;5111291;28;20039;-74
2023/10/25 12:47:57;;;;;;;12.38;4.30;;;;;;;;;;5115032;28;20039;-71
2023/10/25 12:50:24;;;;;;;8.07;4.82;;;;;;;;;;5116021;28;20372;-73
2023/10/25 12:52:49;;;;;;;10.52;4.90;;;;;;;;;;5115710;28;20032;-76
2023/10/25 12:55:15;;;;;;;7.68;4.88;;;;;;;;;;5114989;28;20101;-74
2023/10/25 12:57:40;;;;;;;10.90;4.70;;;;;;;;;;5114479;28;20036;-70
2023/10/25 13:00:08;;;;;;;8.60;4.90;;;;;;;;;;5114881;28;20513;-74
2023/10/25 13:02:34;;;;;;;7.63;4.88;;;;;;;;;;5115573;28;20036;-70
2023/10/25 13:04:59;;;;;;;10.25;4.90;;;;;;;;;;5114583;28;20030;-75
2023/10/25 13:07:25;;;;;;;9.10;4.93;;;;;;;;;;5114195;28;20036;-76
2023/10/25 13:09:50;;;;;;;11.20;5.43;;;;;;;;;;5115799;28;20115;-74
2023/10/25 13:12:16;;;;;;;8.45;5.20;;;;;;;;;;5108244;28;20586;-74
2023/10/25 13:14:41;;;;;;;9.25;5.30;;;;;;;;;;5114881;28;20073;-75
2023/10/25 13:17:07;;;;;;;10.48;5.50;;;;;;;;;;5112443;28;20036;-74
2023/10/25 13:19:33;;;;;;;9.95;5.22;;;;;;;;;;5096997;28;20074;-70
2023/10/25 13:21:58;;;;;;;11.55;5.63;;;;;;;;;;5100608;28;20460;-72
2023/10/25 13:24:24;;;;;;;11.75;6.25;;;;;;;;;;5101997;28;20052;-77
2023/10/25 13:26:49;;;;;;;12.32;5.78;;;;;;;;;;5084463;28;20441;-72
2023/10/25 13:29:15;;;;;;;9.65;5.85;;;;;;;;;;5096099;28;20023;-72
2023/10/25 13:31:40;;;;;;;11.50;5.30;;;;;;;;;;5111700;28;20020;-72
2023/10/25 13:34:06;;;;;;;10.27;5.65;;;;;;;;;;5114434;28;20031;-74
2023/10/25 13:36:31;;;;;;;11.68;5.75;;;;;;;;;;5114586;28;20031;-75
2023/10/25 13:38:57;;;;;;;10.27;5.07;;;;;;;;;;5113894;28;20070;-71
2023/10/25 13:41:22;;;;;;;9.85;5.25;;;;;;;;;;5113142;28;20024;-69
2023/10/25 13:43:48;;;;;;;13.43;6.00;;;;;;;;;;5105495;28;20032;-75
2023/10/25 13:46:13;;;;;;;10.50;6.20;;;;;;;;;;5093399;28;20024;-70
2023/10/25 13:48:39;;;;;;;10.10;5.75;;;;;;;;;;5109935;28;20031;-74
2023/10/25 13:51:05;;;;;;;12.07;6.30;;;;;;;;;;5100412;28;20543;-74
2023/10/25 13:53:30;;;;;;;12.68;6.20;;;;;;;;;;5095763;28;20102;-74
2023/10/25 13:55:56;;;;;;;11.85;6.28;;;;;;;;;;5093493;28;20024;-75
2023/10/25 13:58:21;;;;;;;11.00;6.30;;;;;;;;;;5098219;28;20054;-76
2023/10/25 14:00:49;;;;;;;9.70;5.38;;;;;;;;;;5095570;28;20396;-68
2023/10/25 14:03:15;;;;;;;9.82;5.63;;;;;;;;;;5093279;28;20069;-69
2023/10/25 14:05:44;;;;;;;10.75;5.40;;;;;;;;;;5093939;28;20427;-69
2023/10/25 14:08:09;;;;;;;8.88;5.72;;;;;;;;;;5074786;28;20085;-69
2023/10/25 14:10:45;;;;;;;9.52;6.05;;;;;;;;;;5094118;28;20035;-69
2023/10/25 14:13:11;;;;;;;10.30;5.70;;;;;;;;;;5093051;28;20065;-68
2023/10/25 14:15:37;;;;;;;11.57;5.78;;;;;;;;;;5093618;28;20023;-68
2023/10/25 14:18:03;;;;;;;9.38;5.47;;;;;;;;;;5092801;28;20487;-68
2023/10/25 14:20:29;;;;;;;10.43;5.97;;;;;;;;;;5093451;28;20047;-69
2023/10/25 14:22:55;;;;;;;10.25;5.70;;;;;;;;;;5093542;28;20036;-69
2023/10/25 14:25:20;;;;;;;8.77;5.75;;;;;;;;;;5093068;28;20050;-68
2023/10/25 14:27:46;;;;;;;12.55;5.53;;;;;;;;;;5075882;28;20047;-69
2023/10/25 14:30:12;;;;;;;10.48;5.63;;;;;;;;;;5103770;28;20028;-70
2023/10/25 14:32:37;;;;;;;9.63;5.40;;;;;;;;;;5093579;28;20040;-70
2023/10/25 14:35:04;;;;;;;9.05;5.63;;;;;;;;;;5100721;28;20077;-70